sensor_id;sensor_type;location;lat;lon;timestamp;P1;durP1;ratioP1;P2;durP2;ratioP2
21663;SDS011;10993;52.510;13.456;2023-02-15T00:02:31;25.67;;;10.37;;
21663;SDS011;10993;52.510;13.456;2023-02-15T00:07:31;27.17;;;10.53;;
21663;SDS011;10993;52.510;13.456;2023-02-15T00:12:33;24.00;;;10.07;;
21663;SDS011;10993;52.510;13.456;2023-02-15T00:17:34;26.97;;;11.00;;
21663;SDS011;10993;52.510;13.456;2023-02-15T00:22:34;23.43;;;9.50;;
21663;SDS011;10993;52.510;13.456;2023-02-15T00:27:36;25.40;;;11.23;;
21663;SDS011;10993;52.510;13.456;2023-02-15T00:32:36;24.23;;;10.20;;
21663;SDS011;10993;52.510;13.456;2023-02-15T00:37:36;26.40;;;11.07;;
21663;SDS011;10993;52.510;13.456;2023-02-15T00:42:38;27.37;;;10.77;;
21663;SDS011;10993;52.510;13.456;2023-02-15T00:47:38;26.10;;;10.57;;
21663;SDS011;10993;52.510;13.456;2023-02-15T00:52:39;31.97;;;11.37;;
21663;SDS011;10993;52.510;13.456;2023-02-15T00:57:40;23.73;;;10.27;;
21663;SDS011;10993;52.510;13.456;2023-02-15T01:02:40;28.37;;;12.30;;
21663;SDS011;10993;52.510;13.456;2023-02-15T01:07:44;25.63;;;11.77;;
21663;SDS011;10993;52.510;13.456;2023-02-15T01:12:45;25.63;;;10.83;;
21663;SDS011;10993;52.510;13.456;2023-02-15T01:17:46;26.17;;;11.07;;
21663;SDS011;10993;52.510;13.456;2023-02-15T01:22:51;24.63;;;10.80;;
21663;SDS011;10993;52.510;13.456;2023-02-15T01:27:53;24.47;;;11.30;;
21663;SDS011;10993;52.510;13.456;2023-02-15T01:32:54;25.73;;;10.80;;
21663;SDS011;10993;52.510;13.456;2023-02-15T01:37:54;31.00;;;11.60;;
21663;SDS011;10993;52.510;13.456;2023-02-15T01:42:56;27.17;;;11.77;;
21663;SDS011;10993;52.510;13.456;2023-02-15T01:47:58;33.40;;;12.07;;
21663;SDS011;10993;52.510;13.456;2023-02-15T01:53:03;33.33;;;11.40;;
21663;SDS011;10993;52.510;13.456;2023-02-15T01:58:12;25.73;;;11.07;;
21663;SDS011;10993;52.510;13.456;2023-02-15T02:03:13;31.63;;;13.13;;
21663;SDS011;10993;52.510;13.456;2023-02-15T02:08:14;30.47;;;12.37;;
21663;SDS011;10993;52.510;13.456;2023-02-15T02:13:16;25.80;;;10.50;;
21663;SDS011;10993;52.510;13.456;2023-02-15T02:18:22;36.43;;;13.17;;
21663;SDS011;10993;52.510;13.456;2023-02-15T02:23:39;35.90;;;13.77;;
21663;SDS011;10993;52.510;13.456;2023-02-15T02:28:57;32.67;;;12.67;;
21663;SDS011;10993;52.510;13.456;2023-02-15T02:34:19;40.73;;;14.63;;
21663;SDS011;10993;52.510;13.456;2023-02-15T02:39:28;36.40;;;13.80;;
21663;SDS011;10993;52.510;13.456;2023-02-15T02:44:38;45.17;;;15.70;;
21663;SDS011;10993;52.510;13.456;2023-02-15T02:49:44;37.83;;;14.67;;
21663;SDS011;10993;52.510;13.456;2023-02-15T02:54:45;44.13;;;16.27;;
21663;SDS011;10993;52.510;13.456;2023-02-15T02:59:45;45.93;;;16.33;;
21663;SDS011;10993;52.510;13.456;2023-02-15T03:04:50;44.33;;;14.33;;
21663;SDS011;10993;52.510;13.456;2023-02-15T03:10:04;41.87;;;15.80;;
21663;SDS011;10993;52.510;13.456;2023-02-15T03:26:50;38.07;;;14.20;;
21663;SDS011;10993;52.510;13.456;2023-02-15T03:31:53;38.50;;;15.27;;
21663;SDS011;10993;52.510;13.456;2023-02-15T03:37:00;44.40;;;15.93;;
21663;SDS011;10993;52.510;13.456;2023-02-15T03:42:08;40.03;;;14.53;;
21663;SDS011;10993;52.510;13.456;2023-02-15T03:47:13;42.67;;;15.30;;
21663;SDS011;10993;52.510;13.456;2023-02-15T03:52:17;39.23;;;15.13;;
21663;SDS011;10993;52.510;13.456;2023-02-15T03:57:22;34.97;;;14.00;;
21663;SDS011;10993;52.510;13.456;2023-02-15T04:02:45;39.30;;;15.00;;
21663;SDS011;10993;52.510;13.456;2023-02-15T04:07:55;40.03;;;15.37;;
21663;SDS011;10993;52.510;13.456;2023-02-15T04:12:57;38.37;;;15.67;;
21663;SDS011;10993;52.510;13.456;2023-02-15T04:17:57;38.60;;;14.03;;
21663;SDS011;10993;52.510;13.456;2023-02-15T04:22:57;41.77;;;14.83;;
21663;SDS011;10993;52.510;13.456;2023-02-15T04:28:18;37.07;;;12.30;;
21663;SDS011;10993;52.510;13.456;2023-02-15T04:33:18;37.87;;;13.97;;
21663;SDS011;10993;52.510;13.456;2023-02-15T04:38:18;41.00;;;12.70;;
21663;SDS011;10993;52.510;13.456;2023-02-15T04:43:20;37.30;;;14.27;;
21663;SDS011;10993;52.510;13.456;2023-02-15T04:48:20;36.97;;;14.37;;
21663;SDS011;10993;52.510;13.456;2023-02-15T04:53:21;36.87;;;13.40;;
21663;SDS011;10993;52.510;13.456;2023-02-15T04:58:22;32.80;;;12.43;;
21663;SDS011;10993;52.510;13.456;2023-02-15T05:03:23;36.30;;;13.73;;
21663;SDS011;10993;52.510;13.456;2023-02-15T05:08:23;31.10;;;11.73;;
21663;SDS011;10993;52.510;13.456;2023-02-15T05:13:25;36.37;;;12.07;;
21663;SDS011;10993;52.510;13.456;2023-02-15T05:18:25;34.43;;;13.20;;
21663;SDS011;10993;52.510;13.456;2023-02-15T05:23:26;35.40;;;13.17;;
21663;SDS011;10993;52.510;13.456;2023-02-15T05:28:27;40.80;;;13.23;;
21663;SDS011;10993;52.510;13.456;2023-02-15T05:33:28;39.77;;;13.90;;
21663;SDS011;10993;52.510;13.456;2023-02-15T05:38:28;31.93;;;12.67;;
21663;SDS011;10993;52.510;13.456;2023-02-15T05:43:31;37.70;;;13.50;;
21663;SDS011;10993;52.510;13.456;2023-02-15T05:48:31;32.80;;;13.40;;
21663;SDS011;10993;52.510;13.456;2023-02-15T05:53:34;34.67;;;12.93;;
21663;SDS011;10993;52.510;13.456;2023-02-15T05:58:39;38.53;;;15.03;;
21663;SDS011;10993;52.510;13.456;2023-02-15T06:03:41;38.23;;;13.80;;
21663;SDS011;10993;52.510;13.456;2023-02-15T06:08:41;35.83;;;13.53;;
21663;SDS011;10993;52.510;13.456;2023-02-15T06:13:43;41.50;;;14.63;;
21663;SDS011;10993;52.510;13.456;2023-02-15T06:18:43;43.63;;;15.03;;
21663;SDS011;10993;52.510;13.456;2023-02-15T06:23:44;41.93;;;14.10;;
21663;SDS011;10993;52.510;13.456;2023-02-15T06:28:45;42.33;;;14.40;;
21663;SDS011;10993;52.510;13.456;2023-02-15T06:33:46;32.87;;;13.07;;
21663;SDS011;10993;52.510;13.456;2023-02-15T06:38:46;41.03;;;13.40;;
21663;SDS011;10993;52.510;13.456;2023-02-15T06:43:48;41.30;;;13.87;;
21663;SDS011;10993;52.510;13.456;2023-02-15T06:48:48;31.43;;;12.40;;
21663;SDS011;10993;52.510;13.456;2023-02-15T06:53:48;43.43;;;14.43;;
21663;SDS011;10993;52.510;13.456;2023-02-15T07:04:47;43.20;;;14.20;;
21663;SDS011;10993;52.510;13.456;2023-02-15T07:09:48;41.77;;;15.73;;
21663;SDS011;10993;52.510;13.456;2023-02-15T07:14:48;36.55;;;13.00;;
21663;SDS011;10993;52.510;13.456;2023-02-15T07:19:50;36.40;;;13.47;;
21663;SDS011;10993;52.510;13.456;2023-02-15T07:24:50;34.10;;;13.07;;
21663;SDS011;10993;52.510;13.456;2023-02-15T07:29:54;35.33;;;13.23;;
21663;SDS011;10993;52.510;13.456;2023-02-15T07:34:56;36.13;;;14.57;;
21663;SDS011;10993;52.510;13.456;2023-02-15T07:39:57;28.10;;;10.77;;
21663;SDS011;10993;52.510;13.456;2023-02-15T07:44:57;32.97;;;13.63;;
21663;SDS011;10993;52.510;13.456;2023-02-15T07:49:59;35.47;;;13.60;;
21663;SDS011;10993;52.510;13.456;2023-02-15T07:54:59;40.33;;;12.47;;
21663;SDS011;10993;52.510;13.456;2023-02-15T07:59:59;38.63;;;14.00;;
21663;SDS011;10993;52.510;13.456;2023-02-15T08:05:01;38.60;;;13.60;;
21663;SDS011;10993;52.510;13.456;2023-02-15T08:10:01;38.57;;;13.73;;
21663;SDS011;10993;52.510;13.456;2023-02-15T08:15:02;43.30;;;14.70;;
21663;SDS011;10993;52.510;13.456;2023-02-15T08:20:04;42.00;;;14.40;;
21663;SDS011;10993;52.510;13.456;2023-02-15T08:25:05;38.87;;;14.97;;
21663;SDS011;10993;52.510;13.456;2023-02-15T08:30:06;34.07;;;12.47;;
21663;SDS011;10993;52.510;13.456;2023-02-15T08:35:09;40.23;;;14.13;;
21663;SDS011;10993;52.510;13.456;2023-02-15T08:40:10;42.67;;;14.53;;
21663;SDS011;10993;52.510;13.456;2023-02-15T08:45:13;43.13;;;13.37;;
21663;SDS011;10993;52.510;13.456;2023-02-15T08:50:14;45.40;;;14.63;;
21663;SDS011;10993;52.510;13.456;2023-02-15T08:55:15;39.93;;;15.03;;
21663;SDS011;10993;52.510;13.456;2023-02-15T09:00:16;42.47;;;14.40;;
21663;SDS011;10993;52.510;13.456;2023-02-15T09:05:18;38.63;;;12.87;;
21663;SDS011;10993;52.510;13.456;2023-02-15T09:10:19;48.70;;;13.60;;
21663;SDS011;10993;52.510;13.456;2023-02-15T09:15:20;36.37;;;13.43;;
21663;SDS011;10993;52.510;13.456;2023-02-15T09:20:21;34.97;;;13.20;;
21663;SDS011;10993;52.510;13.456;2023-02-15T09:25:22;36.00;;;13.40;;
21663;SDS011;10993;52.510;13.456;2023-02-15T09:30:23;30.63;;;12.33;;
21663;SDS011;10993;52.510;13.456;2023-02-15T09:35:24;35.97;;;13.47;;
21663;SDS011;10993;52.510;13.456;2023-02-15T09:40:25;29.70;;;11.90;;
21663;SDS011;10993;52.510;13.456;2023-02-15T09:45:37;31.37;;;12.53;;
21663;SDS011;10993;52.510;13.456;2023-02-15T09:50:52;32.57;;;12.27;;
21663;SDS011;10993;52.510;13.456;2023-02-15T09:55:59;31.90;;;12.47;;
21663;SDS011;10993;52.510;13.456;2023-02-15T10:01:08;30.93;;;11.40;;
21663;SDS011;10993;52.510;13.456;2023-02-15T10:06:30;29.47;;;11.57;;
21663;SDS011;10993;52.510;13.456;2023-02-15T10:11:39;32.83;;;12.27;;
21663;SDS011;10993;52.510;13.456;2023-02-15T10:17:00;32.92;;;12.15;;
21663;SDS011;10993;52.510;13.456;2023-02-15T10:22:15;27.27;;;11.77;;
21663;SDS011;10993;52.510;13.456;2023-02-15T10:27:26;29.25;;;11.13;;
21663;SDS011;10993;52.510;13.456;2023-02-15T10:32:30;31.80;;;11.85;;
21663;SDS011;10993;52.510;13.456;2023-02-15T10:37:41;33.42;;;13.05;;
21663;SDS011;10993;52.510;13.456;2023-02-15T10:42:57;30.10;;;13.10;;
21663;SDS011;10993;52.510;13.456;2023-02-15T10:48:13;31.67;;;12.50;;
21663;SDS011;10993;52.510;13.456;2023-02-15T10:53:30;32.35;;;13.15;;
21663;SDS011;10993;52.510;13.456;2023-02-15T10:58:49;24.88;;;12.73;;
21663;SDS011;10993;52.510;13.456;2023-02-15T11:04:09;32.83;;;14.32;;
21663;SDS011;10993;52.510;13.456;2023-02-15T11:09:37;29.23;;;13.38;;
21663;SDS011;10993;52.510;13.456;2023-02-15T11:14:43;33.70;;;14.50;;
21663;SDS011;10993;52.510;13.456;2023-02-15T11:19:51;28.75;;;12.98;;
21663;SDS011;10993;52.510;13.456;2023-02-15T11:24:58;26.23;;;12.50;;
21663;SDS011;10993;52.510;13.456;2023-02-15T11:30:02;29.25;;;13.57;;
21663;SDS011;10993;52.510;13.456;2023-02-15T11:35:10;26.33;;;12.98;;
21663;SDS011;10993;52.510;13.456;2023-02-15T11:40:22;30.25;;;14.23;;
21663;SDS011;10993;52.510;13.456;2023-02-15T11:45:26;25.17;;;12.98;;
21663;SDS011;10993;52.510;13.456;2023-02-15T11:50:29;27.55;;;12.23;;
21663;SDS011;10993;52.510;13.456;2023-02-15T11:55:33;23.98;;;12.75;;
21663;SDS011;10993;52.510;13.456;2023-02-15T12:00:35;19.98;;;11.07;;
21663;SDS011;10993;52.510;13.456;2023-02-15T12:05:39;23.30;;;11.45;;
21663;SDS011;10993;52.510;13.456;2023-02-15T12:10:44;26.35;;;12.05;;
21663;SDS011;10993;52.510;13.456;2023-02-15T12:15:56;20.38;;;10.52;;
21663;SDS011;10993;52.510;13.456;2023-02-15T12:20:59;22.38;;;11.32;;
21663;SDS011;10993;52.510;13.456;2023-02-15T12:26:04;23.13;;;12.10;;
21663;SDS011;10993;52.510;13.456;2023-02-15T12:31:07;21.40;;;11.70;;
21663;SDS011;10993;52.510;13.456;2023-02-15T12:36:20;22.88;;;11.25;;
21663;SDS011;10993;52.510;13.456;2023-02-15T12:41:24;23.83;;;11.02;;
21663;SDS011;10993;52.510;13.456;2023-02-15T12:46:26;23.52;;;11.45;;
21663;SDS011;10993;52.510;13.456;2023-02-15T12:51:26;24.38;;;11.07;;
21663;SDS011;10993;52.510;13.456;2023-02-15T12:56:28;25.00;;;10.55;;
21663;SDS011;10993;52.510;13.456;2023-02-15T13:01:29;25.70;;;10.32;;
21663;SDS011;10993;52.510;13.456;2023-02-15T13:06:32;23.92;;;10.93;;
21663;SDS011;10993;52.510;13.456;2023-02-15T13:11:36;20.80;;;10.48;;
21663;SDS011;10993;52.510;13.456;2023-02-15T13:16:38;24.40;;;9.93;;
21663;SDS011;10993;52.510;13.456;2023-02-15T13:21:40;23.15;;;10.38;;
21663;SDS011;10993;52.510;13.456;2023-02-15T13:26:45;24.13;;;11.05;;
21663;SDS011;10993;52.510;13.456;2023-02-15T13:31:47;20.92;;;9.75;;
21663;SDS011;10993;52.510;13.456;2023-02-15T13:36:51;20.42;;;9.20;;
21663;SDS011;10993;52.510;13.456;2023-02-15T13:42:00;22.98;;;10.05;;
21663;SDS011;10993;52.510;13.456;2023-02-15T13:47:09;21.88;;;10.80;;
21663;SDS011;10993;52.510;13.456;2023-02-15T13:52:21;26.70;;;11.13;;
21663;SDS011;10993;52.510;13.456;2023-02-15T13:57:35;22.33;;;10.52;;
21663;SDS011;10993;52.510;13.456;2023-02-15T14:02:57;23.00;;;10.30;;
21663;SDS011;10993;52.510;13.456;2023-02-15T14:08:13;27.17;;;11.82;;
21663;SDS011;10993;52.510;13.456;2023-02-15T14:13:32;31.13;;;12.90;;
21663;SDS011;10993;52.510;13.456;2023-02-15T14:18:44;26.17;;;11.52;;
21663;SDS011;10993;52.510;13.456;2023-02-15T14:23:52;24.38;;;11.40;;
21663;SDS011;10993;52.510;13.456;2023-02-15T14:29:14;25.92;;;11.02;;
21663;SDS011;10993;52.510;13.456;2023-02-15T14:34:21;24.88;;;10.95;;
21663;SDS011;10993;52.510;13.456;2023-02-15T14:39:28;21.30;;;10.55;;
21663;SDS011;10993;52.510;13.456;2023-02-15T14:44:56;22.27;;;10.65;;
21663;SDS011;10993;52.510;13.456;2023-02-15T14:55:37;21.50;;;10.45;;
21663;SDS011;10993;52.510;13.456;2023-02-15T15:00:39;23.75;;;11.05;;
21663;SDS011;10993;52.510;13.456;2023-02-15T15:05:46;27.67;;;10.40;;
21663;SDS011;10993;52.510;13.456;2023-02-15T15:10:49;22.35;;;10.63;;
21663;SDS011;10993;52.510;13.456;2023-02-15T15:15:51;27.38;;;13.90;;
21663;SDS011;10993;52.510;13.456;2023-02-15T15:20:53;25.20;;;11.25;;
21663;SDS011;10993;52.510;13.456;2023-02-15T15:25:55;24.77;;;12.07;;
21663;SDS011;10993;52.510;13.456;2023-02-15T15:30:58;20.95;;;10.05;;
21663;SDS011;10993;52.510;13.456;2023-02-15T15:36:11;20.77;;;9.88;;
21663;SDS011;10993;52.510;13.456;2023-02-15T15:41:32;18.90;;;8.77;;
21663;SDS011;10993;52.510;13.456;2023-02-15T15:46:51;18.30;;;9.00;;
21663;SDS011;10993;52.510;13.456;2023-02-15T15:52:03;19.70;;;9.25;;
21663;SDS011;10993;52.510;13.456;2023-02-15T15:57:14;27.98;;;11.32;;
21663;SDS011;10993;52.510;13.456;2023-02-15T16:02:21;19.90;;;9.13;;
21663;SDS011;10993;52.510;13.456;2023-02-15T16:07:24;21.48;;;9.73;;
21663;SDS011;10993;52.510;13.456;2023-02-15T16:12:26;23.50;;;11.60;;
21663;SDS011;10993;52.510;13.456;2023-02-15T16:17:33;20.88;;;9.85;;
21663;SDS011;10993;52.510;13.456;2023-02-15T16:22:33;22.70;;;10.57;;
21663;SDS011;10993;52.510;13.456;2023-02-15T16:27:35;22.27;;;10.35;;
21663;SDS011;10993;52.510;13.456;2023-02-15T16:32:38;17.90;;;8.40;;
21663;SDS011;10993;52.510;13.456;2023-02-15T16:37:38;22.55;;;10.13;;
21663;SDS011;10993;52.510;13.456;2023-02-15T16:42:38;23.45;;;10.18;;
21663;SDS011;10993;52.510;13.456;2023-02-15T16:47:41;17.38;;;9.05;;
21663;SDS011;10993;52.510;13.456;2023-02-15T16:52:43;21.75;;;9.57;;
21663;SDS011;10993;52.510;13.456;2023-02-15T16:57:44;17.40;;;8.52;;
21663;SDS011;10993;52.510;13.456;2023-02-15T17:02:53;21.33;;;8.43;;
21663;SDS011;10993;52.510;13.456;2023-02-15T17:08:12;18.90;;;8.38;;
21663;SDS011;10993;52.510;13.456;2023-02-15T17:13:18;71.63;;;32.40;;
21663;SDS011;10993;52.510;13.456;2023-02-15T17:18:21;42.35;;;19.00;;
21663;SDS011;10993;52.510;13.456;2023-02-15T17:23:25;26.35;;;13.10;;
21663;SDS011;10993;52.510;13.456;2023-02-15T17:28:30;28.27;;;13.82;;
21663;SDS011;10993;52.510;13.456;2023-02-15T17:33:36;27.85;;;12.35;;
21663;SDS011;10993;52.510;13.456;2023-02-15T17:38:39;31.30;;;14.15;;
21663;SDS011;10993;52.510;13.456;2023-02-15T17:43:58;34.55;;;14.98;;
21663;SDS011;10993;52.510;13.456;2023-02-15T17:49:00;33.08;;;14.43;;
21663;SDS011;10993;52.510;13.456;2023-02-15T17:54:04;26.75;;;11.77;;
21663;SDS011;10993;52.510;13.456;2023-02-15T17:59:24;23.83;;;10.73;;
21663;SDS011;10993;52.510;13.456;2023-02-15T18:04:25;33.72;;;14.13;;
21663;SDS011;10993;52.510;13.456;2023-02-15T18:09:44;22.35;;;9.55;;
21663;SDS011;10993;52.510;13.456;2023-02-15T18:15:04;32.38;;;13.40;;
21663;SDS011;10993;52.510;13.456;2023-02-15T18:20:10;29.10;;;11.38;;
21663;SDS011;10993;52.510;13.456;2023-02-15T18:25:18;21.10;;;9.80;;
21663;SDS011;10993;52.510;13.456;2023-02-15T18:30:21;17.98;;;9.25;;
21663;SDS011;10993;52.510;13.456;2023-02-15T18:35:26;19.85;;;9.55;;
21663;SDS011;10993;52.510;13.456;2023-02-15T18:40:29;21.00;;;9.48;;
21663;SDS011;10993;52.510;13.456;2023-02-15T18:45:29;28.80;;;13.68;;
21663;SDS011;10993;52.510;13.456;2023-02-15T18:50:36;20.90;;;10.68;;
21663;SDS011;10993;52.510;13.456;2023-02-15T18:55:37;26.48;;;12.90;;
21663;SDS011;10993;52.510;13.456;2023-02-15T19:00:38;26.85;;;12.65;;
21663;SDS011;10993;52.510;13.456;2023-02-15T19:05:40;36.38;;;15.68;;
21663;SDS011;10993;52.510;13.456;2023-02-15T19:10:43;26.23;;;12.63;;
21663;SDS011;10993;52.510;13.456;2023-02-15T19:15:44;24.85;;;11.20;;
21663;SDS011;10993;52.510;13.456;2023-02-15T19:20:45;34.03;;;15.33;;
21663;SDS011;10993;52.510;13.456;2023-02-15T19:25:46;27.23;;;13.43;;
21663;SDS011;10993;52.510;13.456;2023-02-15T19:30:48;25.52;;;11.90;;
21663;SDS011;10993;52.510;13.456;2023-02-15T19:35:50;32.05;;;13.55;;
21663;SDS011;10993;52.510;13.456;2023-02-15T19:40:55;27.27;;;12.43;;
21663;SDS011;10993;52.510;13.456;2023-02-15T19:45:59;33.08;;;13.30;;
21663;SDS011;10993;52.510;13.456;2023-02-15T19:51:01;29.30;;;13.17;;
21663;SDS011;10993;52.510;13.456;2023-02-15T19:56:03;35.00;;;14.30;;
21663;SDS011;10993;52.510;13.456;2023-02-15T20:01:03;30.60;;;13.77;;
21663;SDS011;10993;52.510;13.456;2023-02-15T20:06:05;31.33;;;14.43;;
21663;SDS011;10993;52.510;13.456;2023-02-15T20:11:12;30.38;;;12.63;;
21663;SDS011;10993;52.510;13.456;2023-02-15T20:16:13;26.05;;;12.65;;
21663;SDS011;10993;52.510;13.456;2023-02-15T20:21:14;27.07;;;13.07;;
21663;SDS011;10993;52.510;13.456;2023-02-15T20:26:15;29.90;;;11.93;;
21663;SDS011;10993;52.510;13.456;2023-02-15T20:31:17;29.17;;;13.03;;
21663;SDS011;10993;52.510;13.456;2023-02-15T20:36:20;25.17;;;11.47;;
21663;SDS011;10993;52.510;13.456;2023-02-15T20:41:22;28.03;;;12.07;;
21663;SDS011;10993;52.510;13.456;2023-02-15T20:46:34;26.83;;;12.15;;
21663;SDS011;10993;52.510;13.456;2023-02-15T20:51:36;29.38;;;11.93;;
21663;SDS011;10993;52.510;13.456;2023-02-15T20:56:37;31.52;;;14.73;;
21663;SDS011;10993;52.510;13.456;2023-02-15T21:01:37;23.20;;;11.27;;
21663;SDS011;10993;52.510;13.456;2023-02-15T21:06:40;25.27;;;12.07;;
21663;SDS011;10993;52.510;13.456;2023-02-15T21:11:41;22.80;;;11.27;;
21663;SDS011;10993;52.510;13.456;2023-02-15T21:16:42;24.10;;;11.57;;
21663;SDS011;10993;52.510;13.456;2023-02-15T21:21:45;30.03;;;12.43;;
21663;SDS011;10993;52.510;13.456;2023-02-15T21:26:47;25.97;;;11.17;;
21663;SDS011;10993;52.510;13.456;2023-02-15T21:31:47;27.40;;;13.30;;
21663;SDS011;10993;52.510;13.456;2023-02-15T21:36:49;25.67;;;12.48;;
21663;SDS011;10993;52.510;13.456;2023-02-15T21:41:50;29.25;;;13.23;;
21663;SDS011;10993;52.510;13.456;2023-02-15T21:47:16;30.47;;;13.27;;
21663;SDS011;10993;52.510;13.456;2023-02-15T21:52:38;31.97;;;13.80;;
21663;SDS011;10993;52.510;13.456;2023-02-15T21:57:38;30.33;;;12.73;;
21663;SDS011;10993;52.510;13.456;2023-02-15T22:02:38;28.63;;;12.60;;
21663;SDS011;10993;52.510;13.456;2023-02-15T22:07:42;23.60;;;10.93;;
21663;SDS011;10993;52.510;13.456;2023-02-15T22:12:43;23.67;;;10.70;;
21663;SDS011;10993;52.510;13.456;2023-02-15T22:17:44;22.80;;;11.10;;
21663;SDS011;10993;52.510;13.456;2023-02-15T22:22:46;24.20;;;11.80;;
21663;SDS011;10993;52.510;13.456;2023-02-15T22:27:47;22.07;;;11.03;;
21663;SDS011;10993;52.510;13.456;2023-02-15T22:32:49;28.00;;;12.87;;
21663;SDS011;10993;52.510;13.456;2023-02-15T22:37:51;22.83;;;10.33;;
21663;SDS011;10993;52.510;13.456;2023-02-15T22:42:51;23.93;;;10.83;;
21663;SDS011;10993;52.510;13.456;2023-02-15T22:47:54;28.20;;;14.23;;
21663;SDS011;10993;52.510;13.456;2023-02-15T22:52:59;26.50;;;12.60;;
21663;SDS011;10993;52.510;13.456;2023-02-15T22:58:00;22.57;;;10.90;;
21663;SDS011;10993;52.510;13.456;2023-02-15T23:03:04;25.63;;;11.20;;
21663;SDS011;10993;52.510;13.456;2023-02-15T23:08:14;27.47;;;11.90;;
21663;SDS011;10993;52.510;13.456;2023-02-15T23:13:16;27.40;;;11.97;;
21663;SDS011;10993;52.510;13.456;2023-02-15T23:18:23;24.60;;;12.27;;
21663;SDS011;10993;52.510;13.456;2023-02-15T23:23:30;23.40;;;11.93;;
21663;SDS011;10993;52.510;13.456;2023-02-15T23:28:32;29.77;;;13.27;;
21663;SDS011;10993;52.510;13.456;2023-02-15T23:33:34;22.67;;;11.90;;
21663;SDS011;10993;52.510;13.456;2023-02-15T23:38:36;30.73;;;13.23;;
21663;SDS011;10993;52.510;13.456;2023-02-15T23:43:37;25.40;;;10.87;;
21663;SDS011;10993;52.510;13.456;2023-02-15T23:48:40;31.97;;;13.50;;
21663;SDS011;10993;52.510;13.456;2023-02-15T23:53:41;24.57;;;12.17;;
21663;SDS011;10993;52.510;13.456;2023-02-15T23:58:42;25.00;;;12.43;;
